createdAt,value
2022-11-14T00:01:10.153Z,34.75
2022-11-14T00:03:16.143Z,28.23
2022-11-14T00:05:19.590Z,27.58
2022-11-14T00:07:23.235Z,29.33
2022-11-14T00:09:27.103Z,28.63
2022-11-14T00:11:30.328Z,33.08
2022-11-14T00:13:35.071Z,28.23
2022-11-14T00:15:38.349Z,27.92
2022-11-14T00:17:41.967Z,28.87
2022-11-14T00:19:45.748Z,27.67
2022-11-14T00:21:49.037Z,27.00
2022-11-14T00:23:52.731Z,25.17
2022-11-14T00:25:56.021Z,27.83
2022-11-14T00:27:59.728Z,27.97
2022-11-14T00:30:04.764Z,27.33
2022-11-14T00:32:08.964Z,27.10
2022-11-14T00:34:12.171Z,31.20
2022-11-14T00:36:16.471Z,28.17
2022-11-14T00:38:19.758Z,24.20
2022-11-14T00:40:23.034Z,26.55
2022-11-14T00:42:26.240Z,23.85
2022-11-14T00:44:29.522Z,23.48
2022-11-14T00:46:34.166Z,21.43
2022-11-14T00:48:37.829Z,25.15
2022-11-14T00:50:41.090Z,23.10
2022-11-14T00:52:44.241Z,22.90
2022-11-14T00:54:47.839Z,21.80
2022-11-14T00:56:51.047Z,20.85
2022-11-14T00:58:54.195Z,21.40
2022-11-14T01:00:57.773Z,24.40
2022-11-14T01:03:02.390Z,25.77
2022-11-14T01:05:06.422Z,23.58
2022-11-14T01:07:09.626Z,23.75
2022-11-14T01:09:13.179Z,26.20
2022-11-14T01:11:19.776Z,22.40
2022-11-14T01:13:23.039Z,24.55
2022-11-14T01:15:26.352Z,20.48
2022-11-14T01:17:30.053Z,22.23
2022-11-14T01:19:35.059Z,22.70
2022-11-14T01:21:38.353Z,22.50
2022-11-14T01:23:41.639Z,20.75
2022-11-14T01:25:45.500Z,25.00
2022-11-14T01:27:48.678Z,24.45
2022-11-14T01:29:51.948Z,27.55
2022-11-14T01:31:55.275Z,28.13
2022-11-14T01:33:58.442Z,23.38
2022-11-14T01:36:03.253Z,25.77
2022-11-14T01:38:08.708Z,21.48
2022-11-14T01:40:13.308Z,24.10
2022-11-14T01:42:17.716Z,28.93
2022-11-14T01:44:56.357Z,23.38
2022-11-14T01:46:59.650Z,21.98
2022-11-14T01:49:05.407Z,22.25
2022-11-14T01:51:20.323Z,21.45
2022-11-14T01:53:23.612Z,24.80
2022-11-14T01:55:28.024Z,22.08
2022-11-14T01:57:37.714Z,20.63
2022-11-14T01:59:43.821Z,19.88
2022-11-14T02:01:49.365Z,23.73
2022-11-14T02:03:54.860Z,20.35
2022-11-14T02:05:58.832Z,21.13
2022-11-14T02:08:03.631Z,21.55
2022-11-14T02:10:10.000Z,20.70
2022-11-14T02:12:18.088Z,19.23
2022-11-14T02:14:21.462Z,21.88
2022-11-14T02:16:24.992Z,17.58
2022-11-14T02:18:28.501Z,18.13
2022-11-14T02:20:36.725Z,17.63
2022-11-14T02:22:41.747Z,19.75
2022-11-14T02:24:45.550Z,17.50
2022-11-14T02:26:48.845Z,18.27
2022-11-14T02:28:52.490Z,18.20
2022-11-14T02:30:56.395Z,20.10
2022-11-14T02:33:15.014Z,19.55
2022-11-14T02:35:18.456Z,16.10
2022-11-14T02:37:23.102Z,20.33
2022-11-14T02:39:27.045Z,21.43
2022-11-14T02:41:30.300Z,22.35
2022-11-14T02:43:33.490Z,17.63
2022-11-14T02:45:36.743Z,18.93
2022-11-14T02:47:39.913Z,16.60
2022-11-14T02:49:43.124Z,21.77
2022-11-14T02:51:46.336Z,18.75
2022-11-14T02:53:50.980Z,17.88
2022-11-14T02:55:54.404Z,19.70
2022-11-14T02:57:57.715Z,20.30
2022-11-14T03:00:00.906Z,17.40
2022-11-14T03:02:04.226Z,21.40
2022-11-14T03:04:07.593Z,18.98
2022-11-14T03:06:10.959Z,19.08
2022-11-14T03:08:14.279Z,19.27
2022-11-14T03:10:19.951Z,18.88
2022-11-14T03:12:23.245Z,19.80
2022-11-14T03:14:26.495Z,22.80
2022-11-14T03:16:29.821Z,22.90
2022-11-14T03:18:33.008Z,19.77
2022-11-14T03:20:36.599Z,21.23
2022-11-14T03:22:39.931Z,22.65
2022-11-14T03:24:43.218Z,23.20
2022-11-14T03:26:47.904Z,18.60
2022-11-14T03:28:51.242Z,19.33
2022-11-14T03:30:54.557Z,20.63
2022-11-14T03:32:58.645Z,24.77
2022-11-14T03:35:01.959Z,18.85
2022-11-14T03:37:05.111Z,19.98
2022-11-14T03:39:08.721Z,18.17
2022-11-14T03:41:12.028Z,22.42
2022-11-14T03:43:16.925Z,19.83
2022-11-14T03:45:20.144Z,20.20
2022-11-14T03:47:23.317Z,24.43
2022-11-14T03:49:26.670Z,18.07
2022-11-14T03:51:30.031Z,18.95
2022-11-14T03:53:33.306Z,16.33
2022-11-14T03:55:36.984Z,17.52
2022-11-14T03:57:40.222Z,22.60
2022-11-14T03:59:44.821Z,17.40
2022-11-14T04:01:48.966Z,20.75
2022-11-14T04:03:52.308Z,21.35
2022-11-14T04:05:55.604Z,19.52
2022-11-14T04:07:58.857Z,19.75
2022-11-14T04:10:02.097Z,20.58
2022-11-14T04:12:05.542Z,18.60
2022-11-14T04:14:08.780Z,16.00
2022-11-14T04:16:13.344Z,19.80
2022-11-14T04:18:16.655Z,17.40
2022-11-14T04:20:20.138Z,15.80
2022-11-14T04:22:23.422Z,18.35
2022-11-14T04:24:26.648Z,18.15
2022-11-14T04:26:30.100Z,21.30
2022-11-14T04:28:33.589Z,19.17
2022-11-14T04:30:36.831Z,18.40
2022-11-14T04:32:41.444Z,19.15
2022-11-14T04:34:45.241Z,19.05
2022-11-14T04:36:51.239Z,17.90
2022-11-14T04:38:54.650Z,19.63
2022-11-14T04:40:58.247Z,23.25
2022-11-14T04:43:01.394Z,23.85
2022-11-14T04:45:05.235Z,18.60
2022-11-14T04:47:08.571Z,18.08
2022-11-14T04:49:13.231Z,21.10
2022-11-14T04:51:16.843Z,19.73
2022-11-14T04:53:20.083Z,21.73
2022-11-14T04:55:23.320Z,18.48
2022-11-14T04:57:27.211Z,20.20
2022-11-14T04:59:30.524Z,23.58
2022-11-14T05:01:33.811Z,22.00
2022-11-14T05:03:37.336Z,17.55
2022-11-14T05:05:42.430Z,23.20
2022-11-14T05:07:45.727Z,33.35
2022-11-14T05:09:49.005Z,31.27
2022-11-14T05:11:52.260Z,36.90
2022-11-14T05:13:55.406Z,44.42
2022-11-14T05:16:00.367Z,40.90
2022-11-14T05:18:04.449Z,40.88
2022-11-14T05:20:08.529Z,42.05
2022-11-14T05:22:13.153Z,45.97
2022-11-14T05:24:16.598Z,34.67
2022-11-14T05:26:20.614Z,37.10
2022-11-14T05:28:23.891Z,34.73
2022-11-14T05:30:31.252Z,27.77
2022-11-14T05:32:34.823Z,31.15
2022-11-14T05:34:41.080Z,35.45
2022-11-14T05:36:44.526Z,30.60
2022-11-14T05:38:49.201Z,33.45
2022-11-14T05:40:52.387Z,34.53
2022-11-14T05:42:56.782Z,35.27
2022-11-14T05:45:00.149Z,30.83
2022-11-14T05:47:03.434Z,30.83
2022-11-14T05:49:06.625Z,38.35
2022-11-14T05:51:12.317Z,30.57
2022-11-14T05:53:15.502Z,33.20
2022-11-14T05:55:24.590Z,34.53
2022-11-14T05:57:28.489Z,39.28
2022-11-14T05:59:31.732Z,36.95
2022-11-14T06:01:35.107Z,34.88
2022-11-14T06:03:43.696Z,40.05
2022-11-14T06:05:46.870Z,32.08
2022-11-14T06:07:55.743Z,34.05
2022-11-14T06:09:58.876Z,34.10
2022-11-14T06:12:06.427Z,39.67
2022-11-14T06:14:10.851Z,31.27
2022-11-14T06:16:15.920Z,29.17
2022-11-14T06:18:19.142Z,30.70
2022-11-14T06:20:22.944Z,32.13
2022-11-14T06:22:26.162Z,20.80
2022-11-14T06:24:29.388Z,21.07
2022-11-14T06:26:33.644Z,22.27
2022-11-14T06:28:38.316Z,24.67
2022-11-14T06:30:41.649Z,21.87
2022-11-14T06:32:44.837Z,23.83
2022-11-14T06:34:48.096Z,19.10
2022-11-14T06:36:51.312Z,21.30
2022-11-14T06:38:54.829Z,18.15
2022-11-14T06:41:04.039Z,18.60
2022-11-14T06:43:07.286Z,22.90
2022-11-14T06:45:12.821Z,24.75
2022-11-14T06:47:16.057Z,21.83
2022-11-14T06:49:19.302Z,21.08
2022-11-14T06:51:22.530Z,20.37
2022-11-14T06:53:26.906Z,20.70
2022-11-14T06:55:30.131Z,20.20
2022-11-14T06:57:33.632Z,19.98
2022-11-14T06:59:37.198Z,24.87
2022-11-14T07:01:41.787Z,20.30
2022-11-14T07:03:45.636Z,24.93
2022-11-14T07:05:49.003Z,22.17
2022-11-14T07:07:52.237Z,24.70
2022-11-14T07:09:56.771Z,23.35
2022-11-14T07:12:00.301Z,22.30
2022-11-14T07:14:05.893Z,23.60
2022-11-14T07:16:09.391Z,21.13
2022-11-14T07:18:14.164Z,23.40
2022-11-14T07:20:18.548Z,24.00
2022-11-14T07:22:21.799Z,25.23
2022-11-14T07:24:24.967Z,28.33
2022-11-14T07:26:28.374Z,24.73
2022-11-14T07:28:32.220Z,25.20
2022-11-14T07:30:36.058Z,21.90
2022-11-14T07:32:39.286Z,23.43
2022-11-14T07:34:43.871Z,23.10
2022-11-14T07:36:47.157Z,24.53
2022-11-14T07:38:50.362Z,24.57
2022-11-14T07:40:59.900Z,20.83
2022-11-14T07:43:04.144Z,23.53
2022-11-14T07:45:08.612Z,24.47
2022-11-14T07:47:12.114Z,24.10
2022-11-14T07:49:15.494Z,23.97
2022-11-14T07:51:21.806Z,23.10
2022-11-14T07:53:25.108Z,26.90
2022-11-14T07:55:28.464Z,23.73
2022-11-14T07:57:34.330Z,26.93
2022-11-14T07:59:41.826Z,36.67
2022-11-14T08:01:45.290Z,22.83
2022-11-14T08:03:48.750Z,26.47
2022-11-14T08:05:52.002Z,27.70
2022-11-14T08:07:56.866Z,30.90
2022-11-14T08:10:00.092Z,25.67
2022-11-14T08:12:03.443Z,24.40
2022-11-14T08:14:07.025Z,30.63
2022-11-14T08:16:14.222Z,27.63
2022-11-14T08:18:17.588Z,25.57
2022-11-14T08:20:20.982Z,26.33
2022-11-14T08:22:24.231Z,23.07
2022-11-14T08:24:29.183Z,24.97
2022-11-14T08:26:34.428Z,25.80
2022-11-14T08:28:38.200Z,30.00
2022-11-14T08:30:41.483Z,34.93
2022-11-14T08:32:44.732Z,27.10
2022-11-14T08:34:49.695Z,31.77
2022-11-14T08:36:53.291Z,24.47
2022-11-14T08:39:01.540Z,26.27
2022-11-14T08:41:07.145Z,25.97
2022-11-14T08:43:11.753Z,26.97
2022-11-14T08:45:15.052Z,23.07
2022-11-14T08:47:18.284Z,26.40
2022-11-14T08:49:21.709Z,29.93
2022-11-14T08:51:25.079Z,24.00
2022-11-14T08:53:28.321Z,25.10
2022-11-14T08:55:31.720Z,25.90
2022-11-14T08:57:36.571Z,24.97
2022-11-14T08:59:39.838Z,27.33
2022-11-14T09:01:43.568Z,25.60
2022-11-14T09:03:47.166Z,28.10
2022-11-14T09:05:53.018Z,29.70
2022-11-14T09:07:56.222Z,29.30
2022-11-14T09:09:59.403Z,22.17
2022-11-14T09:12:02.556Z,22.17
2022-11-14T09:14:07.460Z,23.50
2022-11-14T09:16:10.701Z,27.47
2022-11-14T09:18:15.434Z,26.03
2022-11-14T09:20:19.729Z,24.80
2022-11-14T09:22:23.382Z,21.80
2022-11-14T09:24:27.025Z,29.63
2022-11-14T09:26:30.362Z,31.37
2022-11-14T09:28:33.885Z,34.73
2022-11-14T09:30:41.093Z,31.97
2022-11-14T09:32:44.384Z,29.33
2022-11-14T09:34:48.179Z,33.60
2022-11-14T09:36:52.088Z,30.90
2022-11-14T09:38:55.763Z,31.60
2022-11-14T09:41:11.862Z,30.90
2022-11-14T09:43:34.882Z,29.67
2022-11-14T09:45:45.573Z,36.00
2022-11-14T09:47:51.729Z,33.33
2022-11-14T09:50:00.440Z,28.77
2022-11-14T09:52:13.655Z,29.83
2022-11-14T09:54:23.005Z,27.53
2022-11-14T09:56:27.426Z,24.73
2022-11-14T09:58:30.915Z,25.50
2022-11-14T10:00:41.264Z,27.10
2022-11-14T10:02:59.275Z,24.50
2022-11-14T10:05:22.816Z,25.17
2022-11-14T10:07:34.557Z,24.60
2022-11-14T10:09:46.113Z,25.10
2022-11-14T10:11:54.494Z,24.03
2022-11-14T10:14:10.212Z,25.97
2022-11-14T10:16:17.495Z,28.10
2022-11-14T10:18:37.630Z,29.00
2022-11-14T10:20:46.486Z,26.93
2022-11-14T10:23:04.789Z,25.37
2022-11-14T10:25:23.813Z,24.57
2022-11-14T10:27:31.292Z,24.27
2022-11-14T10:30:10.994Z,25.60
2022-11-14T10:32:22.989Z,29.37
2022-11-14T10:34:32.321Z,22.40
2022-11-14T10:36:50.905Z,24.87
2022-11-14T10:39:03.676Z,23.97
2022-11-14T10:41:19.265Z,29.33
2022-11-14T10:43:31.492Z,27.40
2022-11-14T10:45:38.820Z,26.30
2022-11-14T10:47:47.570Z,26.53
2022-11-14T10:49:57.292Z,25.17
2022-11-14T10:52:06.215Z,27.73
2022-11-14T10:54:18.375Z,26.03
2022-11-14T10:56:21.679Z,30.60
2022-11-14T10:58:25.217Z,27.97
2022-11-14T11:00:28.788Z,28.30
2022-11-14T11:02:49.924Z,26.27
2022-11-14T11:04:54.565Z,26.10
2022-11-14T11:06:59.646Z,27.27
2022-11-14T11:09:26.692Z,31.17
2022-11-14T11:11:31.793Z,30.83
2022-11-14T11:13:37.326Z,25.60
2022-11-14T11:15:42.939Z,25.93
2022-11-14T11:17:56.187Z,26.10
2022-11-14T11:20:30.055Z,27.67
2022-11-14T11:22:38.577Z,26.70
2022-11-14T11:24:41.791Z,25.63
2022-11-14T11:26:44.974Z,23.70
2022-11-14T11:29:04.429Z,27.77
2022-11-14T11:31:09.415Z,21.13
2022-11-14T11:33:25.050Z,27.90
2022-11-14T11:35:29.932Z,18.83
2022-11-14T11:37:36.688Z,23.17
2022-11-14T11:39:46.729Z,20.27
2022-11-14T11:42:09.710Z,22.83
2022-11-14T11:44:17.754Z,18.90
2022-11-14T11:46:26.818Z,23.10
2022-11-14T11:48:35.364Z,22.20
2022-11-14T11:50:40.320Z,20.00
2022-11-14T11:52:50.493Z,22.90
2022-11-14T11:55:01.136Z,18.40
2022-11-14T11:57:20.047Z,19.90
2022-11-14T11:59:33.927Z,18.13
2022-11-14T12:01:37.581Z,17.97
2022-11-14T12:03:42.377Z,17.73
2022-11-14T12:05:56.598Z,18.13
2022-11-14T12:08:04.409Z,17.77
2022-11-14T12:10:17.626Z,16.93
2022-11-14T12:12:35.074Z,17.13
2022-11-14T12:15:00.045Z,18.80
2022-11-14T12:17:44.709Z,18.40
2022-11-14T12:20:50.459Z,15.73
2022-11-14T12:23:13.440Z,18.83
2022-11-14T12:25:44.822Z,15.10
2022-11-14T12:28:06.296Z,14.00
2022-11-14T12:30:17.030Z,17.13
2022-11-14T12:32:29.493Z,17.70
2022-11-14T12:34:34.084Z,16.20
2022-11-14T12:36:45.145Z,17.20
2022-11-14T12:38:53.808Z,17.10
2022-11-14T12:40:59.201Z,19.30
2022-11-14T12:43:04.044Z,18.07
2022-11-14T12:45:32.909Z,18.17
2022-11-14T12:47:36.104Z,18.63
2022-11-14T12:49:58.015Z,18.70
2022-11-14T12:52:01.124Z,17.83
2022-11-14T12:54:05.860Z,18.70
2022-11-14T12:56:30.448Z,19.43
2022-11-14T12:58:56.437Z,20.03
2022-11-14T13:01:06.547Z,22.53
2022-11-14T13:03:20.852Z,20.43
2022-11-14T13:05:31.902Z,21.33
2022-11-14T13:07:45.444Z,19.97
2022-11-14T13:10:14.018Z,20.47
2022-11-14T13:12:49.353Z,21.90
2022-11-14T13:15:11.042Z,19.43
2022-11-14T13:17:45.211Z,18.90
2022-11-14T13:20:05.893Z,19.53
2022-11-14T13:22:39.963Z,18.67
2022-11-14T13:25:22.903Z,18.73
2022-11-14T13:27:45.307Z,21.53
2022-11-14T13:29:50.553Z,22.37
2022-11-14T13:31:53.981Z,18.83
2022-11-14T13:34:00.009Z,19.73
2022-11-14T13:36:06.751Z,18.07
2022-11-14T13:38:58.573Z,19.33
2022-11-14T13:41:18.027Z,18.30
2022-11-14T13:43:33.540Z,22.43
2022-11-14T13:46:01.256Z,16.60
2022-11-14T13:48:44.795Z,17.20
2022-11-14T13:50:54.317Z,17.10
2022-11-14T13:52:58.385Z,16.57
2022-11-14T13:55:02.928Z,17.00
2022-11-14T13:57:16.651Z,17.37
2022-11-14T13:59:59.924Z,23.63
2022-11-14T14:02:34.566Z,19.93
2022-11-14T14:04:50.999Z,19.80
2022-11-14T14:07:08.583Z,18.33
2022-11-14T14:09:23.287Z,18.93
2022-11-14T14:11:43.195Z,21.67
2022-11-14T14:13:56.118Z,23.30
2022-11-14T14:16:07.179Z,23.70
2022-11-14T14:18:20.693Z,21.00
2022-11-14T14:20:34.040Z,27.43
2022-11-14T14:22:45.909Z,21.30
2022-11-14T14:24:57.419Z,21.70
2022-11-14T14:27:13.697Z,23.33
2022-11-14T14:29:25.593Z,25.57
2022-11-14T14:31:37.449Z,25.50
2022-11-14T14:33:42.623Z,24.90
2022-11-14T14:35:52.640Z,24.53
2022-11-14T14:37:57.566Z,27.17
2022-11-14T14:40:02.113Z,31.03
2022-11-14T14:42:12.451Z,23.17
2022-11-14T14:44:25.459Z,22.37
2022-11-14T14:46:33.010Z,24.40
2022-11-14T14:48:40.057Z,27.60
2022-11-14T14:50:49.693Z,30.60
2022-11-14T14:52:58.269Z,27.13
2022-11-14T14:55:02.417Z,25.03
2022-11-14T14:57:05.552Z,24.33
2022-11-14T14:59:19.593Z,24.27
2022-11-14T15:01:27.873Z,24.90
2022-11-14T15:03:36.994Z,25.83
2022-11-14T15:05:40.438Z,25.93
2022-11-14T15:07:43.774Z,27.20
2022-11-14T15:09:53.917Z,25.17
2022-11-14T15:11:59.068Z,31.50
2022-11-14T15:14:03.431Z,26.43
2022-11-14T15:16:07.882Z,28.87
2022-11-14T15:18:23.641Z,28.83
2022-11-14T15:20:28.551Z,26.20
2022-11-14T15:22:32.709Z,32.27
2022-11-14T15:24:35.852Z,27.60
2022-11-14T15:26:39.383Z,24.40
2022-11-14T15:28:44.889Z,28.37
2022-11-14T15:30:59.241Z,31.10
2022-11-14T15:33:04.375Z,34.43
2022-11-14T15:35:26.954Z,25.53
2022-11-14T15:37:30.173Z,25.93
2022-11-14T15:39:33.405Z,31.60
2022-11-14T15:41:36.656Z,32.47
2022-11-14T15:43:50.421Z,30.67
2022-11-14T15:45:53.636Z,35.67
2022-11-14T15:48:04.810Z,30.13
2022-11-14T15:50:28.685Z,39.60
2022-11-14T15:52:36.442Z,48.93
2022-11-14T15:54:42.852Z,40.03
2022-11-14T15:56:46.055Z,44.17
2022-11-14T15:58:49.738Z,46.40
2022-11-14T16:00:56.260Z,45.47
2022-11-14T16:02:59.843Z,44.03
2022-11-14T16:05:05.456Z,48.77
2022-11-14T16:07:13.265Z,48.20
2022-11-14T16:09:19.043Z,47.33
2022-11-14T16:11:22.196Z,61.17
2022-11-14T16:13:25.371Z,51.60
2022-11-14T16:15:28.624Z,53.50
2022-11-14T16:17:38.056Z,51.63
2022-11-14T16:19:41.419Z,54.60
2022-11-14T16:21:45.117Z,55.50
2022-11-14T16:23:50.201Z,57.50
2022-11-14T16:25:53.665Z,52.87
2022-11-14T16:27:57.190Z,65.80
2022-11-14T16:30:00.661Z,60.40
2022-11-14T16:32:03.850Z,60.90
2022-11-14T16:34:07.361Z,54.87
2022-11-14T16:36:12.048Z,50.37
2022-11-14T16:38:15.253Z,53.00
2022-11-14T16:40:23.203Z,52.63
2022-11-14T16:42:26.520Z,52.27
2022-11-14T16:44:30.201Z,55.10
2022-11-14T16:46:33.463Z,56.07
2022-11-14T16:48:37.001Z,53.43
2022-11-14T16:50:40.676Z,55.93
2022-11-14T16:52:43.850Z,59.17
2022-11-14T16:54:47.075Z,52.40
2022-11-14T16:56:51.565Z,57.70
2022-11-14T16:58:57.608Z,58.30
2022-11-14T17:01:00.866Z,53.40
2022-11-14T17:03:04.222Z,47.80
2022-11-14T17:05:07.824Z,60.33
2022-11-14T17:07:11.551Z,51.73
2022-11-14T17:09:15.323Z,53.73
2022-11-14T17:11:18.565Z,53.13
2022-11-14T17:13:25.385Z,53.57
2022-11-14T17:15:28.499Z,56.20
2022-11-14T17:17:32.551Z,57.17
2022-11-14T17:19:35.768Z,63.23
2022-11-14T17:21:38.943Z,57.00
2022-11-14T17:23:42.229Z,54.87
2022-11-14T17:25:45.467Z,52.33
2022-11-14T17:27:49.256Z,52.07
2022-11-14T17:29:54.198Z,48.20
2022-11-14T17:31:58.771Z,45.83
2022-11-14T17:34:03.012Z,51.13
2022-11-14T17:36:07.199Z,52.83
2022-11-14T17:38:10.398Z,51.57
2022-11-14T17:40:15.667Z,52.60
2022-11-14T17:42:19.277Z,45.17
2022-11-14T17:44:22.773Z,55.97
2022-11-14T17:46:27.371Z,45.80
2022-11-14T17:48:30.985Z,51.37
2022-11-14T17:50:37.650Z,54.93
2022-11-14T17:52:41.875Z,51.03
2022-11-14T17:54:44.989Z,54.90
2022-11-14T17:56:53.692Z,51.50
2022-11-14T17:58:58.099Z,50.43
2022-11-14T18:01:01.493Z,57.67
2022-11-14T18:03:06.442Z,49.10
2022-11-14T18:05:09.632Z,51.70
2022-11-14T18:07:13.100Z,48.80
2022-11-14T18:09:16.289Z,55.30
2022-11-14T18:11:20.485Z,60.70
2022-11-14T18:13:23.710Z,56.57
2022-11-14T18:15:28.261Z,54.80
2022-11-14T18:17:31.927Z,56.57
2022-11-14T18:19:37.239Z,58.93
2022-11-14T18:21:43.240Z,54.73
2022-11-14T18:23:51.883Z,56.73
2022-11-14T18:25:55.016Z,63.60
2022-11-14T18:27:58.203Z,61.10
2022-11-14T18:30:19.781Z,57.27
2022-11-14T18:32:24.708Z,52.60
2022-11-14T18:34:27.892Z,60.20
2022-11-14T18:36:32.642Z,57.40
2022-11-14T18:38:36.165Z,62.53
2022-11-14T18:40:39.521Z,62.20
2022-11-14T18:42:42.694Z,62.97
2022-11-14T18:44:46.120Z,67.50
2022-11-14T18:46:49.271Z,59.50
2022-11-14T18:48:55.814Z,57.53
2022-11-14T18:51:02.314Z,67.80
2022-11-14T18:53:06.799Z,70.30
2022-11-14T18:55:10.373Z,63.23
2022-11-14T18:57:13.525Z,59.23
2022-11-14T18:59:16.770Z,64.13
2022-11-14T19:01:24.848Z,60.53
2022-11-14T19:03:28.859Z,61.67
2022-11-14T19:05:35.917Z,63.50
2022-11-14T19:07:39.016Z,58.37
2022-11-14T19:09:44.558Z,72.87
2022-11-14T19:12:01.758Z,60.77
2022-11-14T19:14:06.890Z,71.23
2022-11-14T19:16:10.198Z,61.17
2022-11-14T19:18:13.370Z,67.23
2022-11-14T19:20:16.725Z,70.10
2022-11-14T19:22:19.999Z,72.60
2022-11-14T19:24:23.271Z,60.93
2022-11-14T19:26:29.094Z,61.60
2022-11-14T19:28:32.354Z,60.73
2022-11-14T19:30:35.473Z,65.20
2022-11-14T19:32:38.798Z,69.27
2022-11-14T19:34:41.953Z,64.20
2022-11-14T19:36:59.281Z,62.27
2022-11-14T19:39:03.385Z,62.93
2022-11-14T19:41:10.600Z,61.93
2022-11-14T19:43:15.175Z,63.30
2022-11-14T19:45:18.353Z,59.70
2022-11-14T19:47:21.467Z,61.30
2022-11-14T19:49:24.700Z,60.93
2022-11-14T19:51:28.767Z,59.10
2022-11-14T19:53:34.623Z,67.20
2022-11-14T19:55:37.928Z,56.67
2022-11-14T19:57:41.258Z,66.70
2022-11-14T19:59:45.987Z,65.77
2022-11-14T20:01:55.254Z,57.23
2022-11-14T20:04:00.944Z,67.10
2022-11-14T20:06:04.774Z,61.20
2022-11-14T20:08:08.284Z,58.93
2022-11-14T20:10:12.105Z,60.53
2022-11-14T20:12:15.329Z,66.33
2022-11-14T20:14:18.747Z,61.23
2022-11-14T20:16:25.529Z,59.67
2022-11-14T20:18:31.465Z,55.93
2022-11-14T20:20:35.509Z,64.80
2022-11-14T20:22:38.843Z,59.37
2022-11-14T20:24:42.092Z,66.37
2022-11-14T20:26:45.688Z,63.23
2022-11-14T20:28:52.083Z,68.90
2022-11-14T20:30:55.504Z,57.40
2022-11-14T20:33:00.292Z,64.83
2022-11-14T20:35:03.645Z,66.00
2022-11-14T20:37:11.706Z,60.37
2022-11-14T20:39:15.423Z,59.73
2022-11-14T20:41:21.515Z,58.70
2022-11-14T20:43:25.075Z,58.80
2022-11-14T20:45:29.282Z,60.63
2022-11-14T20:47:32.732Z,65.83
2022-11-14T20:49:37.517Z,66.43
2022-11-14T20:51:41.156Z,63.23
2022-11-14T20:53:45.222Z,63.10
2022-11-14T20:55:54.555Z,70.80
2022-11-14T20:57:58.169Z,67.67
2022-11-14T21:00:03.581Z,61.80
2022-11-14T21:02:07.023Z,66.73
2022-11-14T21:04:11.123Z,61.43
2022-11-14T21:06:16.933Z,62.50
2022-11-14T21:08:20.531Z,63.83
2022-11-14T21:10:41.024Z,57.67
2022-11-14T21:13:04.365Z,47.10
2022-11-14T21:15:08.642Z,57.17
2022-11-14T21:17:11.800Z,66.73
2022-11-14T21:19:15.492Z,61.30
2022-11-14T21:21:25.013Z,65.67
2022-11-14T21:23:31.376Z,60.27
2022-11-14T21:25:35.674Z,52.53
2022-11-14T21:27:38.843Z,60.80
2022-11-14T21:29:41.965Z,57.63
2022-11-14T21:31:47.140Z,65.87
2022-11-14T21:33:53.166Z,58.20
2022-11-14T21:35:57.291Z,58.83
2022-11-14T21:38:01.936Z,59.50
2022-11-14T21:40:05.622Z,57.47
2022-11-14T21:42:09.028Z,62.33
2022-11-14T21:44:14.709Z,69.23
2022-11-14T21:46:18.211Z,66.07
2022-11-14T21:48:21.328Z,56.57
2022-11-14T21:50:24.397Z,59.13
2022-11-14T21:52:27.579Z,51.67
2022-11-14T21:54:32.298Z,51.07
2022-11-14T21:56:37.208Z,59.30
2022-11-14T21:58:41.086Z,56.10
2022-11-14T22:00:44.329Z,60.27
2022-11-14T22:03:05.265Z,53.50
2022-11-14T22:05:09.141Z,57.17
2022-11-14T22:07:12.469Z,52.67
2022-11-14T22:09:15.804Z,56.87
2022-11-14T22:11:20.425Z,66.70
2022-11-14T22:13:23.541Z,57.77
2022-11-14T22:15:26.805Z,57.27
2022-11-14T22:17:30.231Z,60.80
2022-11-14T22:19:33.442Z,51.03
2022-11-14T22:21:36.616Z,54.53
2022-11-14T22:23:40.096Z,55.20
2022-11-14T22:25:43.363Z,62.53
2022-11-14T22:27:47.945Z,59.17
2022-11-14T22:29:51.090Z,48.78
2022-11-14T22:31:55.678Z,59.05
2022-11-14T22:33:59.877Z,55.90
2022-11-14T22:36:05.008Z,60.03
2022-11-14T22:38:08.210Z,60.95
2022-11-14T22:40:13.312Z,73.68
2022-11-14T22:42:16.477Z,59.88
2022-11-14T22:44:21.072Z,63.33
2022-11-14T22:46:24.361Z,60.13
2022-11-14T22:48:30.190Z,62.53
2022-11-14T22:50:33.390Z,58.53
2022-11-14T22:52:36.532Z,64.25
2022-11-14T22:54:39.791Z,67.22
2022-11-14T22:56:43.048Z,67.38
2022-11-14T22:58:47.077Z,60.78
2022-11-14T23:00:52.197Z,65.70
2022-11-14T23:02:55.647Z,65.75
2022-11-14T23:04:58.713Z,65.07
2022-11-14T23:07:01.919Z,75.13
2022-11-14T23:09:05.676Z,64.82
2022-11-14T23:11:12.234Z,67.25
2022-11-14T23:13:16.536Z,64.45
2022-11-14T23:15:19.887Z,62.97
2022-11-14T23:17:24.427Z,74.38
2022-11-14T23:19:27.572Z,63.33
2022-11-14T23:21:33.467Z,68.72
2022-11-14T23:23:36.953Z,62.88
2022-11-14T23:25:40.235Z,56.40
2022-11-14T23:27:43.394Z,56.53
2022-11-14T23:29:46.704Z,68.93
2022-11-14T23:31:49.989Z,65.97
2022-11-14T23:33:56.414Z,73.63
2022-11-14T23:36:00.028Z,76.30
2022-11-14T23:38:06.384Z,74.78
2022-11-14T23:40:10.730Z,77.78
2022-11-14T23:42:13.917Z,82.50
2022-11-14T23:44:17.449Z,81.38
2022-11-14T23:46:20.671Z,102.82
2022-11-14T23:48:24.549Z,83.18
2022-11-14T23:50:29.167Z,171.52
2022-11-14T23:52:32.473Z,172.48
2022-11-14T23:54:35.659Z,85.22
2022-11-14T23:56:38.934Z,115.93
2022-11-14T23:58:42.659Z,109.32
